sensor_id;sensor_type;location;lat;lon;timestamp;P1;durP1;ratioP1;P2;durP2;ratioP2
36653;SDS011;22650;49.350;20.898;2023-04-07T00:02:06;7.53;;;3.85;;
36653;SDS011;22650;49.350;20.898;2023-04-07T00:04:40;6.60;;;3.97;;
36653;SDS011;22650;49.350;20.898;2023-04-07T00:07:13;9.68;;;4.93;;
36653;SDS011;22650;49.350;20.898;2023-04-07T00:09:47;7.10;;;4.35;;
36653;SDS011;22650;49.350;20.898;2023-04-07T00:12:20;5.78;;;3.53;;
36653;SDS011;22650;49.350;20.898;2023-04-07T00:14:55;7.85;;;3.75;;
36653;SDS011;22650;49.350;20.898;2023-04-07T00:17:29;7.93;;;4.10;;
36653;SDS011;22650;49.350;20.898;2023-04-07T00:20:03;7.93;;;4.03;;
36653;SDS011;22650;49.350;20.898;2023-04-07T00:22:37;7.18;;;3.70;;
36653;SDS011;22650;49.350;20.898;2023-04-07T00:25:11;7.45;;;3.88;;
36653;SDS011;22650;49.350;20.898;2023-04-07T00:27:44;8.43;;;4.22;;
36653;SDS011;22650;49.350;20.898;2023-04-07T00:30:19;5.95;;;3.33;;
36653;SDS011;22650;49.350;20.898;2023-04-07T00:32:53;7.18;;;3.50;;
36653;SDS011;22650;49.350;20.898;2023-04-07T00:35:27;8.73;;;3.92;;
36653;SDS011;22650;49.350;20.898;2023-04-07T00:38:01;8.80;;;3.67;;
36653;SDS011;22650;49.350;20.898;2023-04-07T00:40:35;6.88;;;3.63;;
36653;SDS011;22650;49.350;20.898;2023-04-07T00:43:08;6.68;;;3.90;;
36653;SDS011;22650;49.350;20.898;2023-04-07T00:45:44;6.18;;;3.60;;
36653;SDS011;22650;49.350;20.898;2023-04-07T00:48:17;6.82;;;3.88;;
36653;SDS011;22650;49.350;20.898;2023-04-07T00:50:51;7.68;;;4.07;;
36653;SDS011;22650;49.350;20.898;2023-04-07T00:53:24;7.68;;;3.92;;
36653;SDS011;22650;49.350;20.898;2023-04-07T00:55:58;7.38;;;3.70;;
36653;SDS011;22650;49.350;20.898;2023-04-07T00:58:31;8.10;;;4.03;;
36653;SDS011;22650;49.350;20.898;2023-04-07T01:01:08;5.00;;;3.05;;
36653;SDS011;22650;49.350;20.898;2023-04-07T01:03:46;6.88;;;3.17;;
36653;SDS011;22650;49.350;20.898;2023-04-07T01:06:27;7.43;;;2.97;;
36653;SDS011;22650;49.350;20.898;2023-04-07T01:09:06;9.05;;;4.07;;
36653;SDS011;22650;49.350;20.898;2023-04-07T01:11:47;8.07;;;3.88;;
36653;SDS011;22650;49.350;20.898;2023-04-07T01:14:27;8.27;;;4.30;;
36653;SDS011;22650;49.350;20.898;2023-04-07T01:17:21;6.45;;;3.30;;
36653;SDS011;22650;49.350;20.898;2023-04-07T01:20:00;7.90;;;3.90;;
36653;SDS011;22650;49.350;20.898;2023-04-07T01:22:40;6.85;;;3.55;;
36653;SDS011;22650;49.350;20.898;2023-04-07T01:25:26;7.65;;;3.65;;
36653;SDS011;22650;49.350;20.898;2023-04-07T01:28:45;4.32;;;2.97;;
36653;SDS011;22650;49.350;20.898;2023-04-07T01:31:30;7.43;;;3.60;;
36653;SDS011;22650;49.350;20.898;2023-04-07T01:34:07;7.40;;;3.65;;
36653;SDS011;22650;49.350;20.898;2023-04-07T01:36:42;6.40;;;3.42;;
36653;SDS011;22650;49.350;20.898;2023-04-07T01:39:17;7.07;;;3.58;;
36653;SDS011;22650;49.350;20.898;2023-04-07T01:41:51;6.22;;;3.70;;
36653;SDS011;22650;49.350;20.898;2023-04-07T01:44:26;7.55;;;3.83;;
36653;SDS011;22650;49.350;20.898;2023-04-07T01:47:01;5.07;;;3.42;;
36653;SDS011;22650;49.350;20.898;2023-04-07T01:49:36;5.00;;;3.28;;
36653;SDS011;22650;49.350;20.898;2023-04-07T01:52:12;5.07;;;3.30;;
36653;SDS011;22650;49.350;20.898;2023-04-07T01:54:46;7.55;;;4.03;;
36653;SDS011;22650;49.350;20.898;2023-04-07T01:57:21;5.55;;;3.70;;
36653;SDS011;22650;49.350;20.898;2023-04-07T01:59:59;8.38;;;3.78;;
36653;SDS011;22650;49.350;20.898;2023-04-07T02:02:47;7.00;;;3.33;;
36653;SDS011;22650;49.350;20.898;2023-04-07T02:05:24;7.43;;;3.22;;
36653;SDS011;22650;49.350;20.898;2023-04-07T02:08:03;6.10;;;3.47;;
36653;SDS011;22650;49.350;20.898;2023-04-07T02:10:39;5.22;;;3.00;;
36653;SDS011;22650;49.350;20.898;2023-04-07T02:13:14;6.40;;;3.60;;
36653;SDS011;22650;49.350;20.898;2023-04-07T02:15:51;9.63;;;3.90;;
36653;SDS011;22650;49.350;20.898;2023-04-07T02:18:27;8.95;;;4.85;;
36653;SDS011;22650;49.350;20.898;2023-04-07T02:21:03;6.65;;;3.13;;
36653;SDS011;22650;49.350;20.898;2023-04-07T02:23:40;7.00;;;4.03;;
36653;SDS011;22650;49.350;20.898;2023-04-07T02:26:13;7.43;;;3.85;;
36653;SDS011;22650;49.350;20.898;2023-04-07T02:28:47;7.78;;;3.92;;
36653;SDS011;22650;49.350;20.898;2023-04-07T02:31:21;4.90;;;2.78;;
36653;SDS011;22650;49.350;20.898;2023-04-07T02:33:56;7.72;;;3.40;;
36653;SDS011;22650;49.350;20.898;2023-04-07T02:36:29;8.50;;;3.55;;
36653;SDS011;22650;49.350;20.898;2023-04-07T02:39:03;6.07;;;3.53;;
36653;SDS011;22650;49.350;20.898;2023-04-07T02:41:36;8.40;;;4.10;;
36653;SDS011;22650;49.350;20.898;2023-04-07T02:44:10;9.88;;;4.32;;
36653;SDS011;22650;49.350;20.898;2023-04-07T02:46:43;7.75;;;3.70;;
36653;SDS011;22650;49.350;20.898;2023-04-07T02:49:18;5.50;;;3.50;;
36653;SDS011;22650;49.350;20.898;2023-04-07T02:51:52;9.93;;;3.65;;
36653;SDS011;22650;49.350;20.898;2023-04-07T02:54:26;7.72;;;3.83;;
36653;SDS011;22650;49.350;20.898;2023-04-07T02:56:59;9.10;;;3.97;;
36653;SDS011;22650;49.350;20.898;2023-04-07T02:59:33;4.53;;;2.97;;
36653;SDS011;22650;49.350;20.898;2023-04-07T03:02:07;5.15;;;2.83;;
36653;SDS011;22650;49.350;20.898;2023-04-07T03:04:42;9.20;;;3.55;;
36653;SDS011;22650;49.350;20.898;2023-04-07T03:07:16;7.30;;;2.92;;
36653;SDS011;22650;49.350;20.898;2023-04-07T03:09:50;5.50;;;3.17;;
36653;SDS011;22650;49.350;20.898;2023-04-07T03:12:23;7.45;;;3.38;;
36653;SDS011;22650;49.350;20.898;2023-04-07T03:14:58;5.22;;;2.90;;
36653;SDS011;22650;49.350;20.898;2023-04-07T03:17:32;5.78;;;2.65;;
36653;SDS011;22650;49.350;20.898;2023-04-07T03:20:07;8.65;;;3.10;;
36653;SDS011;22650;49.350;20.898;2023-04-07T03:22:42;5.20;;;2.92;;
36653;SDS011;22650;49.350;20.898;2023-04-07T03:27:59;5.75;;;3.33;;
36653;SDS011;22650;49.350;20.898;2023-04-07T03:30:35;5.75;;;3.75;;
36653;SDS011;22650;49.350;20.898;2023-04-07T03:33:10;6.65;;;3.30;;
36653;SDS011;22650;49.350;20.898;2023-04-07T03:35:45;5.13;;;2.92;;
36653;SDS011;22650;49.350;20.898;2023-04-07T03:38:19;7.05;;;3.70;;
36653;SDS011;22650;49.350;20.898;2023-04-07T03:40:58;5.07;;;3.00;;
36653;SDS011;22650;49.350;20.898;2023-04-07T03:43:32;7.43;;;3.38;;
36653;SDS011;22650;49.350;20.898;2023-04-07T03:46:05;4.65;;;2.95;;
36653;SDS011;22650;49.350;20.898;2023-04-07T03:48:39;7.40;;;3.20;;
36653;SDS011;22650;49.350;20.898;2023-04-07T03:51:15;7.22;;;3.85;;
36653;SDS011;22650;49.350;20.898;2023-04-07T03:53:52;9.63;;;3.58;;
36653;SDS011;22650;49.350;20.898;2023-04-07T03:56:44;6.85;;;3.30;;
36653;SDS011;22650;49.350;20.898;2023-04-07T03:59:21;5.20;;;3.17;;
36653;SDS011;22650;49.350;20.898;2023-04-07T04:02:03;7.80;;;3.77;;
36653;SDS011;22650;49.350;20.898;2023-04-07T04:04:37;7.18;;;3.55;;
36653;SDS011;22650;49.350;20.898;2023-04-07T04:07:13;6.53;;;3.20;;
36653;SDS011;22650;49.350;20.898;2023-04-07T04:09:54;5.75;;;3.58;;
36653;SDS011;22650;49.350;20.898;2023-04-07T04:12:28;8.05;;;3.70;;
36653;SDS011;22650;49.350;20.898;2023-04-07T04:15:09;5.93;;;3.28;;
36653;SDS011;22650;49.350;20.898;2023-04-07T04:17:43;5.68;;;3.25;;
36653;SDS011;22650;49.350;20.898;2023-04-07T04:20:18;6.20;;;3.50;;
36653;SDS011;22650;49.350;20.898;2023-04-07T04:22:55;5.68;;;3.22;;
36653;SDS011;22650;49.350;20.898;2023-04-07T04:25:29;5.65;;;3.60;;
36653;SDS011;22650;49.350;20.898;2023-04-07T04:28:04;8.00;;;4.22;;
36653;SDS011;22650;49.350;20.898;2023-04-07T04:30:38;9.18;;;3.78;;
36653;SDS011;22650;49.350;20.898;2023-04-07T04:33:13;5.45;;;3.38;;
36653;SDS011;22650;49.350;20.898;2023-04-07T04:38:31;8.23;;;4.15;;
36653;SDS011;22650;49.350;20.898;2023-04-07T04:41:10;7.32;;;3.80;;
36653;SDS011;22650;49.350;20.898;2023-04-07T04:43:44;6.38;;;2.88;;
36653;SDS011;22650;49.350;20.898;2023-04-07T04:46:23;5.93;;;3.03;;
36653;SDS011;22650;49.350;20.898;2023-04-07T04:48:58;6.97;;;3.25;;
36653;SDS011;22650;49.350;20.898;2023-04-07T04:51:32;5.22;;;3.10;;
36653;SDS011;22650;49.350;20.898;2023-04-07T04:54:17;5.70;;;3.13;;
36653;SDS011;22650;49.350;20.898;2023-04-07T04:56:52;6.20;;;3.05;;
36653;SDS011;22650;49.350;20.898;2023-04-07T04:59:27;6.47;;;2.97;;
36653;SDS011;22650;49.350;20.898;2023-04-07T05:02:06;4.75;;;2.55;;
36653;SDS011;22650;49.350;20.898;2023-04-07T05:04:41;6.70;;;2.90;;
36653;SDS011;22650;49.350;20.898;2023-04-07T05:07:40;7.82;;;2.67;;
36653;SDS011;22650;49.350;20.898;2023-04-07T05:10:18;4.57;;;2.60;;
36653;SDS011;22650;49.350;20.898;2023-04-07T05:12:54;7.20;;;3.15;;
36653;SDS011;22650;49.350;20.898;2023-04-07T05:15:27;4.55;;;2.50;;
36653;SDS011;22650;49.350;20.898;2023-04-07T05:18:01;7.32;;;3.28;;
36653;SDS011;22650;49.350;20.898;2023-04-07T05:20:35;6.13;;;3.00;;
36653;SDS011;22650;49.350;20.898;2023-04-07T05:23:09;6.78;;;3.15;;
36653;SDS011;22650;49.350;20.898;2023-04-07T05:25:45;5.53;;;3.10;;
36653;SDS011;22650;49.350;20.898;2023-04-07T05:28:19;8.52;;;3.35;;
36653;SDS011;22650;49.350;20.898;2023-04-07T05:30:54;5.78;;;2.58;;
36653;SDS011;22650;49.350;20.898;2023-04-07T05:33:32;5.47;;;2.70;;
36653;SDS011;22650;49.350;20.898;2023-04-07T05:36:07;5.28;;;3.42;;
36653;SDS011;22650;49.350;20.898;2023-04-07T05:38:42;8.18;;;3.45;;
36653;SDS011;22650;49.350;20.898;2023-04-07T05:41:21;5.32;;;3.35;;
36653;SDS011;22650;49.350;20.898;2023-04-07T05:43:55;8.63;;;3.53;;
36653;SDS011;22650;49.350;20.898;2023-04-07T05:46:29;6.35;;;3.53;;
36653;SDS011;22650;49.350;20.898;2023-04-07T05:49:02;6.38;;;3.08;;
36653;SDS011;22650;49.350;20.898;2023-04-07T05:51:52;6.03;;;3.55;;
36653;SDS011;22650;49.350;20.898;2023-04-07T05:54:26;7.53;;;3.15;;
36653;SDS011;22650;49.350;20.898;2023-04-07T05:57:02;9.10;;;3.45;;
36653;SDS011;22650;49.350;20.898;2023-04-07T05:59:36;6.43;;;3.60;;
36653;SDS011;22650;49.350;20.898;2023-04-07T06:02:10;7.22;;;3.53;;
36653;SDS011;22650;49.350;20.898;2023-04-07T06:04:44;6.95;;;3.75;;
36653;SDS011;22650;49.350;20.898;2023-04-07T06:07:20;7.25;;;4.00;;
36653;SDS011;22650;49.350;20.898;2023-04-07T06:09:54;6.95;;;3.40;;
36653;SDS011;22650;49.350;20.898;2023-04-07T06:12:30;8.07;;;3.90;;
36653;SDS011;22650;49.350;20.898;2023-04-07T06:15:04;7.25;;;4.18;;
36653;SDS011;22650;49.350;20.898;2023-04-07T06:17:38;8.38;;;3.53;;
36653;SDS011;22650;49.350;20.898;2023-04-07T06:20:12;5.13;;;2.78;;
36653;SDS011;22650;49.350;20.898;2023-04-07T06:22:45;5.95;;;3.55;;
36653;SDS011;22650;49.350;20.898;2023-04-07T06:25:19;13.50;;;5.40;;
36653;SDS011;22650;49.350;20.898;2023-04-07T06:27:54;15.00;;;6.38;;
36653;SDS011;22650;49.350;20.898;2023-04-07T06:30:27;10.73;;;5.40;;
36653;SDS011;22650;49.350;20.898;2023-04-07T06:33:01;13.57;;;5.93;;
36653;SDS011;22650;49.350;20.898;2023-04-07T06:35:35;9.68;;;4.50;;
36653;SDS011;22650;49.350;20.898;2023-04-07T06:38:10;7.38;;;3.63;;
36653;SDS011;22650;49.350;20.898;2023-04-07T06:40:44;7.60;;;3.75;;
36653;SDS011;22650;49.350;20.898;2023-04-07T06:43:19;8.63;;;3.90;;
36653;SDS011;22650;49.350;20.898;2023-04-07T06:45:58;7.78;;;4.32;;
36653;SDS011;22650;49.350;20.898;2023-04-07T06:48:32;6.57;;;3.65;;
36653;SDS011;22650;49.350;20.898;2023-04-07T06:51:05;8.32;;;3.83;;
36653;SDS011;22650;49.350;20.898;2023-04-07T06:53:39;8.73;;;3.85;;
36653;SDS011;22650;49.350;20.898;2023-04-07T06:56:14;7.30;;;3.05;;
36653;SDS011;22650;49.350;20.898;2023-04-07T06:58:49;9.07;;;4.15;;
36653;SDS011;22650;49.350;20.898;2023-04-07T07:01:23;8.73;;;4.32;;
36653;SDS011;22650;49.350;20.898;2023-04-07T07:03:57;7.93;;;3.97;;
36653;SDS011;22650;49.350;20.898;2023-04-07T07:06:31;6.10;;;3.83;;
36653;SDS011;22650;49.350;20.898;2023-04-07T07:09:04;6.60;;;3.53;;
36653;SDS011;22650;49.350;20.898;2023-04-07T07:11:38;5.70;;;3.13;;
36653;SDS011;22650;49.350;20.898;2023-04-07T07:14:13;8.85;;;4.15;;
36653;SDS011;22650;49.350;20.898;2023-04-07T07:16:50;8.32;;;4.38;;
36653;SDS011;22650;49.350;20.898;2023-04-07T07:19:23;7.35;;;4.18;;
36653;SDS011;22650;49.350;20.898;2023-04-07T07:21:57;7.97;;;4.63;;
36653;SDS011;22650;49.350;20.898;2023-04-07T07:24:31;8.35;;;4.25;;
36653;SDS011;22650;49.350;20.898;2023-04-07T07:27:05;6.85;;;4.05;;
36653;SDS011;22650;49.350;20.898;2023-04-07T07:29:40;7.35;;;3.85;;
36653;SDS011;22650;49.350;20.898;2023-04-07T07:32:13;7.72;;;3.22;;
36653;SDS011;22650;49.350;20.898;2023-04-07T07:34:47;8.80;;;4.03;;
36653;SDS011;22650;49.350;20.898;2023-04-07T07:37:20;7.35;;;3.28;;
36653;SDS011;22650;49.350;20.898;2023-04-07T07:39:54;7.15;;;3.78;;
36653;SDS011;22650;49.350;20.898;2023-04-07T07:42:28;7.13;;;3.75;;
36653;SDS011;22650;49.350;20.898;2023-04-07T07:45:04;7.20;;;3.28;;
36653;SDS011;22650;49.350;20.898;2023-04-07T07:47:38;7.88;;;3.80;;
36653;SDS011;22650;49.350;20.898;2023-04-07T07:50:12;7.63;;;3.55;;
36653;SDS011;22650;49.350;20.898;2023-04-07T07:52:46;6.93;;;3.47;;
36653;SDS011;22650;49.350;20.898;2023-04-07T07:55:19;5.78;;;3.15;;
36653;SDS011;22650;49.350;20.898;2023-04-07T07:57:53;4.38;;;3.13;;
36653;SDS011;22650;49.350;20.898;2023-04-07T08:00:28;8.88;;;3.55;;
36653;SDS011;22650;49.350;20.898;2023-04-07T08:03:02;7.38;;;3.28;;
36653;SDS011;22650;49.350;20.898;2023-04-07T08:05:36;7.28;;;3.10;;
36653;SDS011;22650;49.350;20.898;2023-04-07T08:08:09;6.60;;;3.15;;
36653;SDS011;22650;49.350;20.898;2023-04-07T08:10:43;6.38;;;3.17;;
36653;SDS011;22650;49.350;20.898;2023-04-07T08:13:16;5.75;;;2.65;;
36653;SDS011;22650;49.350;20.898;2023-04-07T08:15:51;5.82;;;3.45;;
36653;SDS011;22650;49.350;20.898;2023-04-07T08:18:25;5.10;;;3.03;;
36653;SDS011;22650;49.350;20.898;2023-04-07T08:20:59;6.60;;;3.15;;
36653;SDS011;22650;49.350;20.898;2023-04-07T08:23:32;8.65;;;4.03;;
36653;SDS011;22650;49.350;20.898;2023-04-07T08:26:06;5.70;;;3.33;;
36653;SDS011;22650;49.350;20.898;2023-04-07T08:28:39;9.38;;;4.75;;
36653;SDS011;22650;49.350;20.898;2023-04-07T08:31:14;5.78;;;3.67;;
36653;SDS011;22650;49.350;20.898;2023-04-07T08:33:48;11.13;;;4.82;;
36653;SDS011;22650;49.350;20.898;2023-04-07T08:36:24;6.95;;;3.80;;
36653;SDS011;22650;49.350;20.898;2023-04-07T08:38:58;8.20;;;4.20;;
36653;SDS011;22650;49.350;20.898;2023-04-07T08:41:34;6.88;;;3.08;;
36653;SDS011;22650;49.350;20.898;2023-04-07T08:44:09;10.60;;;4.15;;
36653;SDS011;22650;49.350;20.898;2023-04-07T08:46:45;6.82;;;3.30;;
36653;SDS011;22650;49.350;20.898;2023-04-07T08:49:20;7.25;;;3.60;;
36653;SDS011;22650;49.350;20.898;2023-04-07T08:51:56;6.35;;;3.63;;
36653;SDS011;22650;49.350;20.898;2023-04-07T08:54:35;7.57;;;3.58;;
36653;SDS011;22650;49.350;20.898;2023-04-07T08:57:08;6.68;;;3.95;;
36653;SDS011;22650;49.350;20.898;2023-04-07T08:59:42;7.28;;;3.50;;
36653;SDS011;22650;49.350;20.898;2023-04-07T09:02:21;4.50;;;3.22;;
36653;SDS011;22650;49.350;20.898;2023-04-07T09:04:55;7.63;;;3.58;;
36653;SDS011;22650;49.350;20.898;2023-04-07T09:07:30;6.47;;;3.15;;
36653;SDS011;22650;49.350;20.898;2023-04-07T09:10:04;8.65;;;3.42;;
36653;SDS011;22650;49.350;20.898;2023-04-07T09:12:39;5.75;;;3.22;;
36653;SDS011;22650;49.350;20.898;2023-04-07T09:15:12;6.22;;;3.90;;
36653;SDS011;22650;49.350;20.898;2023-04-07T09:17:47;6.55;;;3.38;;
36653;SDS011;22650;49.350;20.898;2023-04-07T09:20:21;6.00;;;3.78;;
36653;SDS011;22650;49.350;20.898;2023-04-07T09:22:55;6.30;;;3.10;;
36653;SDS011;22650;49.350;20.898;2023-04-07T09:25:31;9.10;;;3.38;;
36653;SDS011;22650;49.350;20.898;2023-04-07T09:28:04;7.68;;;4.03;;
36653;SDS011;22650;49.350;20.898;2023-04-07T09:30:38;8.52;;;4.00;;
36653;SDS011;22650;49.350;20.898;2023-04-07T09:33:29;5.00;;;3.35;;
36653;SDS011;22650;49.350;20.898;2023-04-07T09:36:03;9.38;;;3.65;;
36653;SDS011;22650;49.350;20.898;2023-04-07T09:38:38;5.43;;;3.00;;
36653;SDS011;22650;49.350;20.898;2023-04-07T09:41:14;6.22;;;2.95;;
36653;SDS011;22650;49.350;20.898;2023-04-07T09:43:55;8.18;;;3.35;;
36653;SDS011;22650;49.350;20.898;2023-04-07T09:46:29;5.53;;;3.10;;
36653;SDS011;22650;49.350;20.898;2023-04-07T09:49:04;6.20;;;3.00;;
36653;SDS011;22650;49.350;20.898;2023-04-07T09:51:39;4.28;;;2.78;;
36653;SDS011;22650;49.350;20.898;2023-04-07T09:54:33;7.53;;;3.65;;
36653;SDS011;22650;49.350;20.898;2023-04-07T09:57:09;5.50;;;3.38;;
36653;SDS011;22650;49.350;20.898;2023-04-07T09:59:44;9.13;;;3.38;;
36653;SDS011;22650;49.350;20.898;2023-04-07T10:02:19;6.57;;;3.60;;
36653;SDS011;22650;49.350;20.898;2023-04-07T10:04:55;7.40;;;4.00;;
36653;SDS011;22650;49.350;20.898;2023-04-07T10:07:29;5.30;;;2.97;;
36653;SDS011;22650;49.350;20.898;2023-04-07T10:10:04;6.97;;;3.85;;
36653;SDS011;22650;49.350;20.898;2023-04-07T10:12:39;8.02;;;3.97;;
36653;SDS011;22650;49.350;20.898;2023-04-07T10:15:14;6.50;;;3.00;;
36653;SDS011;22650;49.350;20.898;2023-04-07T10:17:48;8.82;;;4.15;;
36653;SDS011;22650;49.350;20.898;2023-04-07T10:20:24;7.78;;;3.33;;
36653;SDS011;22650;49.350;20.898;2023-04-07T10:23:02;7.13;;;3.45;;
36653;SDS011;22650;49.350;20.898;2023-04-07T10:25:41;6.95;;;3.75;;
36653;SDS011;22650;49.350;20.898;2023-04-07T10:28:17;8.30;;;4.18;;
36653;SDS011;22650;49.350;20.898;2023-04-07T10:30:53;8.63;;;3.58;;
36653;SDS011;22650;49.350;20.898;2023-04-07T10:33:43;6.05;;;2.88;;
36653;SDS011;22650;49.350;20.898;2023-04-07T10:36:20;10.38;;;4.20;;
36653;SDS011;22650;49.350;20.898;2023-04-07T10:41:53;6.13;;;2.75;;
36653;SDS011;22650;49.350;20.898;2023-04-07T10:44:45;6.07;;;3.92;;
36653;SDS011;22650;49.350;20.898;2023-04-07T10:47:21;19.00;;;8.50;;
36653;SDS011;22650;49.350;20.898;2023-04-07T10:53:05;9.75;;;4.68;;
36653;SDS011;22650;49.350;20.898;2023-04-07T10:55:40;11.48;;;5.30;;
36653;SDS011;22650;49.350;20.898;2023-04-07T10:58:21;9.73;;;4.18;;
36653;SDS011;22650;49.350;20.898;2023-04-07T11:01:17;7.22;;;4.15;;
36653;SDS011;22650;49.350;20.898;2023-04-07T11:03:56;7.72;;;4.18;;
36653;SDS011;22650;49.350;20.898;2023-04-07T11:06:31;8.70;;;3.92;;
36653;SDS011;22650;49.350;20.898;2023-04-07T11:09:06;9.45;;;5.13;;
36653;SDS011;22650;49.350;20.898;2023-04-07T11:11:51;7.13;;;4.15;;
36653;SDS011;22650;49.350;20.898;2023-04-07T11:14:24;6.03;;;3.65;;
36653;SDS011;22650;49.350;20.898;2023-04-07T11:16:59;5.55;;;3.45;;
36653;SDS011;22650;49.350;20.898;2023-04-07T11:22:24;7.35;;;3.92;;
36653;SDS011;22650;49.350;20.898;2023-04-07T11:25:02;9.07;;;4.60;;
36653;SDS011;22650;49.350;20.898;2023-04-07T11:27:52;6.32;;;3.63;;
36653;SDS011;22650;49.350;20.898;2023-04-07T11:30:25;6.07;;;3.35;;
36653;SDS011;22650;49.350;20.898;2023-04-07T11:32:59;7.10;;;3.30;;
36653;SDS011;22650;49.350;20.898;2023-04-07T11:35:34;6.18;;;3.28;;
36653;SDS011;22650;49.350;20.898;2023-04-07T11:38:07;5.75;;;3.60;;
36653;SDS011;22650;49.350;20.898;2023-04-07T11:40:43;6.50;;;3.60;;
36653;SDS011;22650;49.350;20.898;2023-04-07T11:43:20;5.38;;;2.85;;
36653;SDS011;22650;49.350;20.898;2023-04-07T11:48:50;6.65;;;3.15;;
36653;SDS011;22650;49.350;20.898;2023-04-07T11:51:24;5.15;;;3.05;;
36653;SDS011;22650;49.350;20.898;2023-04-07T11:53:58;5.40;;;3.47;;
36653;SDS011;22650;49.350;20.898;2023-04-07T11:56:41;6.72;;;3.90;;
36653;SDS011;22650;49.350;20.898;2023-04-07T11:59:20;6.68;;;3.00;;
36653;SDS011;22650;49.350;20.898;2023-04-07T12:01:55;5.78;;;2.38;;
36653;SDS011;22650;49.350;20.898;2023-04-07T12:04:29;3.80;;;2.30;;
36653;SDS011;22650;49.350;20.898;2023-04-07T12:07:06;4.45;;;2.65;;
36653;SDS011;22650;49.350;20.898;2023-04-07T12:09:41;4.75;;;2.70;;
36653;SDS011;22650;49.350;20.898;2023-04-07T12:12:23;5.93;;;3.08;;
36653;SDS011;22650;49.350;20.898;2023-04-07T12:14:58;6.80;;;3.50;;
36653;SDS011;22650;49.350;20.898;2023-04-07T12:17:32;5.90;;;3.10;;
36653;SDS011;22650;49.350;20.898;2023-04-07T12:20:06;4.70;;;2.63;;
36653;SDS011;22650;49.350;20.898;2023-04-07T12:25:32;3.27;;;2.20;;
36653;SDS011;22650;49.350;20.898;2023-04-07T12:28:07;3.47;;;2.30;;
36653;SDS011;22650;49.350;20.898;2023-04-07T12:30:41;6.18;;;3.45;;
36653;SDS011;22650;49.350;20.898;2023-04-07T12:33:15;6.13;;;3.75;;
36653;SDS011;22650;49.350;20.898;2023-04-07T12:35:48;13.52;;;6.50;;
36653;SDS011;22650;49.350;20.898;2023-04-07T12:38:22;13.75;;;7.28;;
36653;SDS011;22650;49.350;20.898;2023-04-07T12:40:57;9.43;;;5.13;;
36653;SDS011;22650;49.350;20.898;2023-04-07T12:43:35;7.38;;;3.95;;
36653;SDS011;22650;49.350;20.898;2023-04-07T12:46:09;9.68;;;4.82;;
36653;SDS011;22650;49.350;20.898;2023-04-07T12:48:42;7.53;;;3.83;;
36653;SDS011;22650;49.350;20.898;2023-04-07T12:51:16;7.47;;;4.43;;
36653;SDS011;22650;49.350;20.898;2023-04-07T12:53:50;6.53;;;4.18;;
36653;SDS011;22650;49.350;20.898;2023-04-07T12:56:24;9.57;;;5.28;;
36653;SDS011;22650;49.350;20.898;2023-04-07T12:59:00;8.90;;;4.68;;
36653;SDS011;22650;49.350;20.898;2023-04-07T13:01:34;7.68;;;4.50;;
36653;SDS011;22650;49.350;20.898;2023-04-07T13:04:08;7.80;;;3.97;;
36653;SDS011;22650;49.350;20.898;2023-04-07T13:06:42;5.72;;;3.25;;
36653;SDS011;22650;49.350;20.898;2023-04-07T13:09:16;15.43;;;6.53;;
36653;SDS011;22650;49.350;20.898;2023-04-07T13:11:49;6.07;;;2.92;;
36653;SDS011;22650;49.350;20.898;2023-04-07T13:14:24;4.50;;;2.83;;
36653;SDS011;22650;49.350;20.898;2023-04-07T13:16:57;6.03;;;3.05;;
36653;SDS011;22650;49.350;20.898;2023-04-07T13:19:31;4.45;;;2.80;;
36653;SDS011;22650;49.350;20.898;2023-04-07T13:22:07;4.40;;;3.33;;
36653;SDS011;22650;49.350;20.898;2023-04-07T13:24:41;6.22;;;3.88;;
36653;SDS011;22650;49.350;20.898;2023-04-07T13:27:14;4.38;;;2.80;;
36653;SDS011;22650;49.350;20.898;2023-04-07T13:29:49;4.57;;;2.92;;
36653;SDS011;22650;49.350;20.898;2023-04-07T13:32:23;3.47;;;2.70;;
36653;SDS011;22650;49.350;20.898;2023-04-07T13:34:56;6.28;;;3.20;;
36653;SDS011;22650;49.350;20.898;2023-04-07T13:37:30;3.75;;;2.20;;
36653;SDS011;22650;49.350;20.898;2023-04-07T13:40:05;3.33;;;2.40;;
36653;SDS011;22650;49.350;20.898;2023-04-07T13:42:42;3.65;;;1.98;;
36653;SDS011;22650;49.350;20.898;2023-04-07T13:45:17;4.53;;;2.70;;
36653;SDS011;22650;49.350;20.898;2023-04-07T13:47:51;9.23;;;4.07;;
36653;SDS011;22650;49.350;20.898;2023-04-07T13:50:27;5.88;;;3.55;;
36653;SDS011;22650;49.350;20.898;2023-04-07T13:53:01;5.22;;;3.28;;
36653;SDS011;22650;49.350;20.898;2023-04-07T13:55:34;4.75;;;2.78;;
36653;SDS011;22650;49.350;20.898;2023-04-07T13:58:08;3.67;;;2.40;;
36653;SDS011;22650;49.350;20.898;2023-04-07T14:00:43;3.33;;;2.72;;
36653;SDS011;22650;49.350;20.898;2023-04-07T14:03:17;4.38;;;2.97;;
36653;SDS011;22650;49.350;20.898;2023-04-07T14:05:51;3.60;;;2.35;;
36653;SDS011;22650;49.350;20.898;2023-04-07T14:08:24;3.85;;;2.40;;
36653;SDS011;22650;49.350;20.898;2023-04-07T14:10:58;6.43;;;2.17;;
36653;SDS011;22650;49.350;20.898;2023-04-07T14:13:32;4.32;;;2.75;;
36653;SDS011;22650;49.350;20.898;2023-04-07T14:16:07;4.63;;;2.45;;
36653;SDS011;22650;49.350;20.898;2023-04-07T14:18:40;6.10;;;3.53;;
36653;SDS011;22650;49.350;20.898;2023-04-07T14:21:14;7.80;;;4.50;;
36653;SDS011;22650;49.350;20.898;2023-04-07T14:23:48;10.18;;;5.10;;
36653;SDS011;22650;49.350;20.898;2023-04-07T14:26:21;7.90;;;5.05;;
36653;SDS011;22650;49.350;20.898;2023-04-07T14:28:55;15.15;;;6.88;;
36653;SDS011;22650;49.350;20.898;2023-04-07T14:31:30;9.93;;;6.25;;
36653;SDS011;22650;49.350;20.898;2023-04-07T14:34:03;8.77;;;5.28;;
36653;SDS011;22650;49.350;20.898;2023-04-07T14:36:37;9.90;;;5.22;;
36653;SDS011;22650;49.350;20.898;2023-04-07T14:39:11;11.88;;;6.22;;
36653;SDS011;22650;49.350;20.898;2023-04-07T14:41:45;11.68;;;6.07;;
36653;SDS011;22650;49.350;20.898;2023-04-07T14:44:18;6.32;;;3.97;;
36653;SDS011;22650;49.350;20.898;2023-04-07T14:46:54;8.43;;;4.97;;
36653;SDS011;22650;49.350;20.898;2023-04-07T14:49:27;8.25;;;4.93;;
36653;SDS011;22650;49.350;20.898;2023-04-07T14:52:01;18.13;;;9.60;;
36653;SDS011;22650;49.350;20.898;2023-04-07T14:54:34;15.55;;;9.25;;
36653;SDS011;22650;49.350;20.898;2023-04-07T14:57:08;11.07;;;6.38;;
36653;SDS011;22650;49.350;20.898;2023-04-07T14:59:42;9.35;;;5.13;;
36653;SDS011;22650;49.350;20.898;2023-04-07T15:02:16;15.93;;;7.22;;
36653;SDS011;22650;49.350;20.898;2023-04-07T15:04:50;10.85;;;4.57;;
36653;SDS011;22650;49.350;20.898;2023-04-07T15:07:24;12.02;;;5.35;;
36653;SDS011;22650;49.350;20.898;2023-04-07T15:09:58;13.00;;;5.05;;
36653;SDS011;22650;49.350;20.898;2023-04-07T15:12:31;15.27;;;6.30;;
36653;SDS011;22650;49.350;20.898;2023-04-07T15:15:05;21.50;;;7.95;;
36653;SDS011;22650;49.350;20.898;2023-04-07T15:17:40;10.32;;;5.68;;
36653;SDS011;22650;49.350;20.898;2023-04-07T15:20:16;13.77;;;5.65;;
36653;SDS011;22650;49.350;20.898;2023-04-07T15:22:49;13.38;;;5.28;;
36653;SDS011;22650;49.350;20.898;2023-04-07T15:25:23;18.38;;;8.40;;
36653;SDS011;22650;49.350;20.898;2023-04-07T15:27:56;11.50;;;6.32;;
36653;SDS011;22650;49.350;20.898;2023-04-07T15:30:30;7.45;;;3.88;;
36653;SDS011;22650;49.350;20.898;2023-04-07T15:33:09;7.75;;;4.38;;
36653;SDS011;22650;49.350;20.898;2023-04-07T15:35:42;4.13;;;3.33;;
36653;SDS011;22650;49.350;20.898;2023-04-07T15:38:16;4.28;;;2.55;;
36653;SDS011;22650;49.350;20.898;2023-04-07T15:40:50;5.05;;;2.90;;
36653;SDS011;22650;49.350;20.898;2023-04-07T15:43:23;5.40;;;2.95;;